Time;durP1;ratioP1;P1;durP2;ratioP2;P2;SDS_P1;SDS_P2;PMS_P1;PMS_P2;Temp;Humidity;BMP_temperature;BMP_pressure;BME280_temperature;BME280_humidity;BME280_pressure;Samples;Min_cycle;Max_cycle;Signal;HPM_P1;HPM_P2
2021/01/15 00:02:03;;;;;;;17.58;12.15;;;1.10;99.90;;;;;;5035997;28;20281;-90
2021/01/15 00:04:30;;;;;;;15.38;11.10;;;1.10;99.90;;;;;;5036185;28;20587;-91
2021/01/15 00:07:00;;;;;;;12.43;9.77;;;1.10;99.90;;;;;;5036311;28;20195;-90
2021/01/15 00:09:27;;;;;;;13.20;10.25;;;1.10;99.90;;;;;;5039158;28;20296;-90
2021/01/15 00:11:53;;;;;;;13.65;9.40;;;1.10;99.90;;;;;;5041932;28;20232;-91
2021/01/15 00:14:19;;;;;;;14.82;10.93;;;1.10;99.90;;;;;;5041057;28;20690;-90
2021/01/15 00:16:46;;;;;;;13.48;10.93;;;1.10;99.90;;;;;;5045766;28;20305;-91
2021/01/15 00:19:13;;;;;;;12.35;8.93;;;1.10;99.90;;;;;;5049252;28;20221;-90
2021/01/15 00:21:48;;;;;;;12.68;8.60;;;1.10;99.90;;;;;;5048880;28;20197;-90
2021/01/15 00:24:15;;;;;;;14.65;11.30;;;1.10;99.90;;;;;;5037631;28;20238;-90
2021/01/15 00:26:43;;;;;;;12.38;9.45;;;1.10;99.90;;;;;;5036392;28;20222;-90
2021/01/15 00:29:10;;;;;;;12.18;8.75;;;1.10;99.90;;;;;;5042511;28;20212;-91
2021/01/15 00:31:38;;;;;;;15.55;11.02;;;1.10;99.90;;;;;;5036480;28;20191;-90
2021/01/15 00:34:07;;;;;;;11.23;9.00;;;1.10;99.90;;;;;;5037029;28;20212;-90
2021/01/15 00:36:35;;;;;;;13.05;8.93;;;1.10;99.90;;;;;;5037245;28;20205;-90
2021/01/15 00:39:02;;;;;;;10.80;8.35;;;1.10;99.90;;;;;;5036313;28;20202;-90
2021/01/15 00:41:28;;;;;;;12.32;8.73;;;1.10;99.90;;;;;;5037467;28;20201;-90
2021/01/15 00:43:55;;;;;;;15.00;9.68;;;1.20;99.90;;;;;;5036677;28;20196;-92
2021/01/15 00:46:31;;;;;;;12.95;9.00;;;1.10;99.90;;;;;;5039725;28;20189;-90
2021/01/15 00:48:58;;;;;;;11.93;9.45;;;1.20;99.90;;;;;;5046214;28;20213;-91
2021/01/15 00:51:24;;;;;;;12.13;9.82;;;1.10;99.90;;;;;;5044967;28;20216;-91
2021/01/15 00:53:52;;;;;;;10.93;8.00;;;1.10;99.90;;;;;;5036370;28;20565;-91
2021/01/15 00:56:18;;;;;;;11.80;9.30;;;1.00;99.90;;;;;;5040063;28;20190;-91
2021/01/15 00:58:46;;;;;;;11.95;8.95;;;1.00;99.90;;;;;;5040418;28;20205;-91
2021/01/15 01:01:13;;;;;;;11.48;8.55;;;1.10;99.90;;;;;;5040795;28;20197;-91
2021/01/15 01:03:40;;;;;;;14.82;9.73;;;1.00;99.90;;;;;;5040875;28;20189;-90
2021/01/15 01:06:10;;;;;;;10.25;8.95;;;1.00;99.90;;;;;;5041522;28;20215;-91
2021/01/15 01:08:36;;;;;;;10.57;8.15;;;1.00;99.90;;;;;;5043093;28;20228;-91
2021/01/15 01:11:04;;;;;;;9.98;7.70;;;1.00;99.90;;;;;;5044859;28;20239;-90
2021/01/15 01:13:30;;;;;;;10.82;8.90;;;1.00;99.90;;;;;;5033631;28;20197;-90
2021/01/15 01:15:57;;;;;;;10.00;7.97;;;0.90;99.90;;;;;;5050367;28;20242;-90
2021/01/15 01:18:23;;;;;;;14.85;10.07;;;1.00;99.90;;;;;;5038422;28;20733;-90
2021/01/15 01:20:49;;;;;;;11.60;7.78;;;1.00;99.90;;;;;;5039401;28;20239;-89
2021/01/15 01:23:15;;;;;;;9.38;8.40;;;0.90;99.90;;;;;;5038373;28;20194;-90
2021/01/15 01:25:42;;;;;;;11.02;8.30;;;0.90;99.90;;;;;;5038939;28;20186;-90
2021/01/15 01:28:09;;;;;;;10.77;8.25;;;0.90;99.90;;;;;;5038721;28;20193;-90
2021/01/15 01:30:37;;;;;;;12.93;8.27;;;0.90;99.90;;;;;;5039625;28;20559;-90
2021/01/15 01:33:04;;;;;;;11.73;8.60;;;0.90;99.90;;;;;;5040275;28;20240;-89
2021/01/15 01:35:30;;;;;;;11.20;8.45;;;0.90;99.90;;;;;;5039956;28;20239;-89
2021/01/15 01:37:56;;;;;;;9.82;8.45;;;0.90;99.90;;;;;;5039988;28;20194;-90
2021/01/15 01:40:23;;;;;;;11.82;8.05;;;0.90;99.90;;;;;;5045008;28;20226;-89
2021/01/15 01:42:49;;;;;;;11.10;7.85;;;0.90;99.90;;;;;;5040392;28;20269;-90
2021/01/15 01:45:16;;;;;;;10.30;7.82;;;0.90;99.90;;;;;;5040782;28;20638;-89
2021/01/15 01:47:43;;;;;;;9.88;8.00;;;0.90;99.90;;;;;;5039096;28;20641;-89
2021/01/15 01:50:10;;;;;;;10.60;7.75;;;1.00;99.90;;;;;;5038749;28;20224;-89
2021/01/15 01:52:37;;;;;;;10.73;7.90;;;0.90;99.90;;;;;;5038708;28;20197;-90
2021/01/15 01:55:04;;;;;;;12.38;8.95;;;0.90;99.90;;;;;;5039232;28;20194;-89
2021/01/15 01:57:31;;;;;;;10.82;8.10;;;0.90;99.90;;;;;;5039717;28;20213;-89
2021/01/15 01:59:58;;;;;;;10.85;8.40;;;0.90;99.90;;;;;;5021071;28;20197;-89
2021/01/15 02:02:25;;;;;;;11.65;7.60;;;0.90;99.90;;;;;;5037721;28;20194;-89
2021/01/15 02:04:51;;;;;;;11.45;9.00;;;0.90;99.90;;;;;;5038110;28;20233;-89
2021/01/15 02:07:20;;;;;;;9.55;7.85;;;0.90;99.90;;;;;;5037719;28;20193;-89
2021/01/15 02:09:54;;;;;;;13.18;9.50;;;0.90;99.90;;;;;;5038320;28;20655;-89
2021/01/15 02:12:31;;;;;;;11.75;9.05;;;0.90;99.90;;;;;;5038563;28;20188;-89
2021/01/15 02:15:04;;;;;;;10.18;8.50;;;0.90;99.90;;;;;;5037986;28;20195;-90
2021/01/15 02:17:36;;;;;;;10.52;8.90;;;0.90;99.90;;;;;;5036674;28;20196;-90
2021/01/15 02:20:24;;;;;;;11.90;8.75;;;0.90;99.90;;;;;;5037263;28;20217;-89
2021/01/15 02:23:04;;;;;;;14.38;9.27;;;0.90;99.90;;;;;;5038121;28;20275;-89
2021/01/15 02:25:58;;;;;;;15.13;9.52;;;0.90;99.90;;;;;;5043785;28;20194;-90
2021/01/15 02:28:44;;;;;;;10.55;9.07;;;0.90;99.90;;;;;;5038216;28;20203;-90
2021/01/15 02:31:25;;;;;;;13.20;9.50;;;0.90;99.90;;;;;;5037852;28;20645;-90
2021/01/15 02:34:09;;;;;;;11.27;8.50;;;0.90;99.90;;;;;;5037922;28;20197;-90
2021/01/15 02:36:42;;;;;;;11.70;8.75;;;0.90;99.90;;;;;;5038130;28;20211;-89
2021/01/15 02:39:16;;;;;;;14.45;10.20;;;0.90;99.90;;;;;;5038149;28;20208;-89
2021/01/15 02:41:43;;;;;;;14.00;9.65;;;0.90;99.90;;;;;;5037272;28;20197;-89
2021/01/15 02:44:13;;;;;;;11.10;8.48;;;0.90;99.90;;;;;;5037357;28;20247;-90
2021/01/15 02:46:47;;;;;;;13.95;10.15;;;0.90;99.90;;;;;;5039250;28;20228;-89
2021/01/15 02:49:16;;;;;;;12.45;11.15;;;0.90;99.90;;;;;;5041345;28;20217;-90
2021/01/15 02:51:42;;;;;;;11.77;9.90;;;1.00;99.90;;;;;;5042242;28;20195;-90
2021/01/15 02:54:09;;;;;;;15.07;9.18;;;1.00;99.90;;;;;;5036828;28;20201;-90
2021/01/15 02:56:36;;;;;;;14.98;10.90;;;1.00;99.90;;;;;;5037318;28;20202;-90
2021/01/15 02:59:03;;;;;;;15.55;11.38;;;1.00;99.90;;;;;;5036865;28;20232;-89
2021/01/15 03:01:31;;;;;;;14.45;12.57;;;1.00;99.90;;;;;;5036551;28;20206;-89
2021/01/15 03:04:06;;;;;;;16.98;12.82;;;1.00;99.90;;;;;;5036645;28;20217;-90
2021/01/15 03:06:41;;;;;;;17.08;13.27;;;1.00;99.90;;;;;;5036411;28;20201;-89
2021/01/15 03:09:09;;;;;;;16.63;14.35;;;1.00;99.90;;;;;;5036580;28;20232;-90
2021/01/15 03:11:37;;;;;;;19.33;13.35;;;1.00;99.90;;;;;;5037189;28;20629;-90
2021/01/15 03:14:05;;;;;;;18.02;13.45;;;1.00;99.90;;;;;;5038664;28;20195;-89
2021/01/15 03:16:32;;;;;;;26.05;13.05;;;1.00;99.90;;;;;;5039601;28;20189;-89
2021/01/15 03:18:59;;;;;;;18.63;14.60;;;1.00;99.90;;;;;;5046201;28;20221;-90
2021/01/15 03:21:27;;;;;;;19.90;15.55;;;0.90;99.90;;;;;;5052182;28;20498;-89
2021/01/15 03:23:55;;;;;;;21.63;16.00;;;1.00;99.90;;;;;;5043427;28;20185;-89
2021/01/15 03:26:21;;;;;;;24.30;17.00;;;1.00;99.90;;;;;;5038510;28;20193;-89
2021/01/15 03:28:48;;;;;;;23.52;16.80;;;1.00;99.90;;;;;;5036881;28;20236;-90
2021/01/15 03:31:14;;;;;;;21.45;14.70;;;0.90;99.90;;;;;;5035541;28;20190;-89
2021/01/15 03:33:40;;;;;;;23.23;15.35;;;1.00;99.90;;;;;;5035671;28;20656;-90
2021/01/15 03:36:07;;;;;;;20.85;15.00;;;1.00;99.90;;;;;;5035767;28;20551;-90
2021/01/15 03:38:33;;;;;;;21.30;15.57;;;1.00;99.90;;;;;;5035374;28;20198;-90
2021/01/15 03:41:00;;;;;;;21.00;16.55;;;0.90;99.90;;;;;;5035467;28;20222;-90
2021/01/15 03:43:27;;;;;;;20.30;16.60;;;0.90;99.90;;;;;;5035706;28;20651;-90
2021/01/15 03:45:53;;;;;;;23.58;16.27;;;0.90;99.90;;;;;;5035129;28;20193;-89
2021/01/15 03:48:23;;;;;;;20.42;15.05;;;0.90;99.90;;;;;;5035255;28;20191;-90
2021/01/15 03:50:50;;;;;;;22.10;16.10;;;0.90;99.90;;;;;;5036651;28;20223;-90
2021/01/15 03:53:17;;;;;;;21.40;16.95;;;0.90;99.90;;;;;;5037595;28;20642;-90
2021/01/15 03:55:43;;;;;;;25.73;16.48;;;0.90;99.90;;;;;;5036932;28;20206;-90
2021/01/15 03:58:11;;;;;;;23.92;15.88;;;0.90;99.90;;;;;;5036216;28;20197;-90
2021/01/15 04:00:38;;;;;;;20.98;15.63;;;0.90;99.90;;;;;;5036579;28;20188;-90
2021/01/15 04:03:04;;;;;;;21.73;15.32;;;0.90;99.90;;;;;;5036099;28;20193;-90
2021/01/15 04:05:31;;;;;;;27.30;17.35;;;0.90;99.90;;;;;;5035496;28;20210;-90
2021/01/15 04:07:57;;;;;;;19.48;16.42;;;0.90;99.90;;;;;;5035521;28;20562;-90
2021/01/15 04:10:23;;;;;;;21.33;16.95;;;0.80;99.90;;;;;;5034970;28;20208;-89
2021/01/15 04:12:49;;;;;;;22.77;16.77;;;0.80;99.90;;;;;;5035203;28;20192;-90
2021/01/15 04:15:17;;;;;;;20.98;17.45;;;0.80;99.90;;;;;;5035842;28;20249;-90
2021/01/15 04:17:44;;;;;;;27.05;17.00;;;0.80;99.90;;;;;;5035521;28;20194;-90
2021/01/15 04:20:12;;;;;;;25.88;17.25;;;0.80;99.90;;;;;;5035022;28;20591;-90
2021/01/15 04:22:40;;;;;;;22.42;17.95;;;0.80;99.90;;;;;;5035412;28;20193;-90
2021/01/15 04:25:07;;;;;;;23.38;18.38;;;0.80;99.90;;;;;;5035598;28;20207;-91
2021/01/15 04:27:35;;;;;;;23.45;18.52;;;0.80;99.90;;;;;;5034706;28;20205;-90
2021/01/15 04:30:03;;;;;;;20.27;16.13;;;0.80;99.90;;;;;;5029335;28;20248;-90
2021/01/15 04:32:31;;;;;;;21.95;17.02;;;0.80;99.90;;;;;;5034962;28;20197;-90
2021/01/15 04:34:57;;;;;;;25.77;18.65;;;0.80;99.90;;;;;;5034890;28;20186;-90
2021/01/15 04:37:23;;;;;;;24.25;18.23;;;0.80;99.90;;;;;;5040260;28;20200;-89
2021/01/15 04:39:50;;;;;;;21.48;17.20;;;0.80;99.90;;;;;;5045771;28;20189;-90
2021/01/15 04:42:17;;;;;;;25.20;19.30;;;0.70;99.90;;;;;;5037356;28;20219;-90
2021/01/15 04:44:46;;;;;;;27.15;18.48;;;0.80;99.90;;;;;;5034645;28;20193;-90
2021/01/15 04:47:13;;;;;;;26.20;20.17;;;0.80;99.90;;;;;;5034840;28;20198;-90
2021/01/15 04:49:41;;;;;;;23.98;17.88;;;0.80;99.90;;;;;;5034533;28;20224;-90
2021/01/15 04:52:11;;;;;;;23.30;18.05;;;0.70;99.90;;;;;;5034828;28;20192;-90
2021/01/15 04:54:39;;;;;;;28.40;20.08;;;0.70;99.90;;;;;;5034302;28;20652;-89
2021/01/15 04:57:06;;;;;;;24.15;18.20;;;0.70;99.90;;;;;;5034969;28;20189;-90
2021/01/15 04:59:42;;;;;;;24.55;19.38;;;0.70;99.90;;;;;;5034350;28;20195;-89
2021/01/15 05:02:09;;;;;;;28.13;21.23;;;0.70;99.90;;;;;;5034630;28;20200;-90
2021/01/15 05:04:36;;;;;;;25.23;18.92;;;0.70;99.90;;;;;;5034908;28;20203;-90
2021/01/15 05:07:05;;;;;;;26.67;18.17;;;0.80;99.90;;;;;;5036103;28;20199;-89
2021/01/15 05:09:39;;;;;;;24.23;17.33;;;0.70;99.90;;;;;;5037948;28;20219;-90
2021/01/15 05:12:10;;;;;;;26.08;18.40;;;0.70;99.90;;;;;;5038453;28;20633;-90
2021/01/15 05:14:37;;;;;;;26.63;17.63;;;0.70;99.90;;;;;;5034588;28;20200;-89
2021/01/15 05:17:06;;;;;;;27.85;20.15;;;0.70;99.90;;;;;;5034775;28;20203;-90
2021/01/15 05:19:33;;;;;;;30.42;19.85;;;0.70;99.90;;;;;;5026425;28;20445;-90
2021/01/15 05:21:59;;;;;;;25.95;18.45;;;0.60;99.90;;;;;;5034481;28;20197;-90
2021/01/15 05:24:26;;;;;;;23.23;17.80;;;0.70;99.90;;;;;;5034433;28;20207;-89
2021/01/15 05:26:53;;;;;;;24.63;17.00;;;0.70;99.90;;;;;;5034761;28;20428;-89
2021/01/15 05:29:20;;;;;;;23.70;16.75;;;0.70;99.90;;;;;;5033586;28;20214;-89
2021/01/15 05:31:51;;;;;;;24.48;18.73;;;0.70;99.90;;;;;;5039207;28;20194;-90
2021/01/15 05:34:17;;;;;;;30.98;21.80;;;0.70;99.90;;;;;;5038933;28;20644;-89
2021/01/15 05:36:44;;;;;;;26.42;20.42;;;0.70;99.90;;;;;;5033968;28;20200;-90
2021/01/15 05:39:12;;;;;;;25.38;18.33;;;0.70;99.90;;;;;;5034635;28;20190;-89
2021/01/15 05:41:40;;;;;;;30.20;18.27;;;0.70;99.90;;;;;;5037035;28;20198;-90
2021/01/15 05:44:07;;;;;;;27.15;20.30;;;0.70;99.90;;;;;;5038514;28;20187;-89
2021/01/15 05:46:34;;;;;;;29.42;20.85;;;0.60;99.90;;;;;;5038318;28;20554;-90
2021/01/15 05:49:11;;;;;;;24.73;19.10;;;0.60;99.90;;;;;;5038109;28;20207;-89
2021/01/15 05:51:38;;;;;;;31.67;21.25;;;0.60;99.90;;;;;;5037519;28;20250;-89
2021/01/15 05:54:06;;;;;;;29.05;20.13;;;0.60;99.90;;;;;;5038510;28;20651;-90
2021/01/15 05:56:41;;;;;;;28.88;19.80;;;0.60;99.90;;;;;;5035556;28;20204;-88
2021/01/15 05:59:08;;;;;;;26.05;20.70;;;0.70;99.90;;;;;;5036986;28;20192;-89
2021/01/15 06:01:41;;;;;;;34.08;21.15;;;0.70;99.90;;;;;;5044799;28;20202;-89
2021/01/15 06:04:08;;;;;;;30.05;21.45;;;0.70;99.90;;;;;;5043343;28;20195;-89
2021/01/15 06:06:36;;;;;;;33.10;20.95;;;0.80;99.90;;;;;;5040330;28;20196;-89
2021/01/15 06:09:03;;;;;;;29.45;21.67;;;0.80;99.90;;;;;;5041059;28;20215;-90
2021/01/15 06:11:30;;;;;;;30.05;21.17;;;0.80;99.90;;;;;;5039867;28;20202;-89
2021/01/15 06:13:57;;;;;;;31.40;20.85;;;0.70;99.90;;;;;;5038345;28;20193;-89
2021/01/15 06:16:27;;;;;;;33.05;21.10;;;0.70;99.90;;;;;;5042512;28;20208;-91
2021/01/15 06:18:59;;;;;;;29.20;20.77;;;0.70;99.90;;;;;;5040101;28;20276;-85
2021/01/15 06:21:33;;;;;;;28.60;21.33;;;0.70;99.90;;;;;;5052552;28;20189;-85
2021/01/15 06:24:04;;;;;;;27.73;21.75;;;0.70;99.90;;;;;;5050579;28;20219;-85
2021/01/15 06:26:34;;;;;;;25.90;20.55;;;0.60;99.90;;;;;;5043623;28;20192;-86
2021/01/15 06:29:09;;;;;;;37.60;18.67;;;0.70;99.90;;;;;;5036339;28;20299;-84
2021/01/15 06:31:48;;;;;;;30.70;20.67;;;0.60;99.90;;;;;;5036438;28;20191;-85
2021/01/15 06:34:15;;;;;;;25.50;19.73;;;0.60;99.90;;;;;;5034606;28;20204;-85
2021/01/15 06:36:48;;;;;;;34.50;22.13;;;0.60;99.90;;;;;;5035916;28;20643;-86
2021/01/15 06:39:16;;;;;;;35.53;23.80;;;0.60;99.90;;;;;;5035181;28;20196;-85
2021/01/15 06:41:43;;;;;;;29.08;20.88;;;0.60;99.90;;;;;;5022355;28;20197;-86
2021/01/15 06:44:11;;;;;;;27.52;19.63;;;0.70;99.90;;;;;;5036190;28;20190;-85
2021/01/15 06:46:42;;;;;;;26.85;20.58;;;0.70;99.90;;;;;;5035520;28;20198;-85
2021/01/15 06:49:16;;;;;;;29.48;21.13;;;0.70;99.90;;;;;;5035963;28;20570;-85
2021/01/15 06:51:55;;;;;;;33.63;22.10;;;0.70;99.90;;;;;;5033122;28;20195;-86
2021/01/15 06:54:24;;;;;;;28.08;21.33;;;0.70;99.90;;;;;;5035520;28;20420;-84
2021/01/15 06:56:59;;;;;;;30.77;22.70;;;0.70;99.90;;;;;;5035482;28;20198;-85
2021/01/15 06:59:32;;;;;;;28.55;20.90;;;0.60;99.90;;;;;;5035871;28;20183;-84
2021/01/15 07:02:09;;;;;;;30.67;21.90;;;0.60;99.90;;;;;;5036056;28;20248;-85
2021/01/15 07:04:50;;;;;;;31.02;20.48;;;0.60;99.90;;;;;;5035570;28;20641;-85
2021/01/15 07:07:17;;;;;;;29.33;19.65;;;0.60;99.90;;;;;;5035481;28;20647;-85
2021/01/15 07:09:45;;;;;;;31.40;20.17;;;0.50;99.90;;;;;;5035061;28;20208;-84
2021/01/15 07:12:13;;;;;;;29.35;23.65;;;0.50;99.90;;;;;;5035604;28;20281;-89
2021/01/15 07:14:57;;;;;;;27.63;22.13;;;0.60;99.90;;;;;;5035481;28;20202;-85
2021/01/15 07:17:31;;;;;;;29.58;21.13;;;0.50;99.90;;;;;;5035207;28;20523;-85
2021/01/15 07:20:10;;;;;;;31.33;21.85;;;0.60;99.90;;;;;;5034716;28;20216;-83
2021/01/15 07:22:42;;;;;;;29.30;22.90;;;0.50;99.90;;;;;;5035298;28;20620;-83
2021/01/15 07:25:10;;;;;;;32.65;22.60;;;0.50;99.90;;;;;;5035366;28;20189;-85
2021/01/15 07:27:37;;;;;;;35.15;22.65;;;0.50;99.90;;;;;;5035066;28;20201;-84
2021/01/15 07:30:06;;;;;;;30.52;21.00;;;0.60;99.90;;;;;;5040521;28;20213;-85
2021/01/15 07:32:35;;;;;;;30.10;20.05;;;0.60;99.90;;;;;;5035409;28;20197;-84
2021/01/15 07:35:03;;;;;;;32.83;23.38;;;0.60;99.90;;;;;;5035132;28;20192;-84
2021/01/15 07:37:30;;;;;;;28.13;21.38;;;0.70;99.90;;;;;;5034462;28;20199;-84
2021/01/15 07:40:01;;;;;;;30.05;22.30;;;0.60;99.90;;;;;;5034540;28;20188;-83
2021/01/15 07:42:53;;;;;;;30.88;21.67;;;0.60;99.90;;;;;;5034899;28;20600;-84
2021/01/15 07:45:58;;;;;;;29.67;21.90;;;0.60;99.90;;;;;;5034960;28;20262;-85
2021/01/15 07:48:29;;;;;;;34.28;21.98;;;0.60;99.90;;;;;;5034878;28;20540;-82
2021/01/15 07:51:11;;;;;;;34.75;22.42;;;0.60;99.90;;;;;;5035266;28;20225;-83
2021/01/15 07:53:44;;;;;;;28.67;20.45;;;0.60;99.90;;;;;;5034640;28;20218;-83
2021/01/15 07:56:11;;;;;;;30.85;22.92;;;0.60;99.90;;;;;;5033662;28;20199;-83
2021/01/15 07:58:47;;;;;;;31.70;19.63;;;0.60;99.90;;;;;;5028224;28;20211;-82
2021/01/15 08:01:17;;;;;;;34.58;21.70;;;0.70;99.90;;;;;;5017755;28;20204;-84
2021/01/15 08:03:45;;;;;;;33.58;21.00;;;0.70;99.90;;;;;;5017538;28;20185;-83
2021/01/15 08:06:12;;;;;;;32.03;21.30;;;0.60;99.90;;;;;;5034069;28;20200;-83
2021/01/15 08:08:57;;;;;;;28.50;19.83;;;0.70;99.90;;;;;;5033784;28;20192;-83
2021/01/15 08:11:24;;;;;;;24.23;19.67;;;0.70;99.90;;;;;;5033988;28;20199;-82
2021/01/15 08:13:50;;;;;;;31.80;22.42;;;0.70;99.90;;;;;;5035160;28;20308;-82
2021/01/15 08:16:18;;;;;;;27.85;18.92;;;0.70;99.90;;;;;;5019168;28;20649;-82
2021/01/15 08:18:44;;;;;;;28.30;19.55;;;0.80;99.90;;;;;;5016241;28;20225;-83
2021/01/15 08:21:12;;;;;;;33.13;21.40;;;0.90;99.90;;;;;;5034686;28;20193;-83
2021/01/15 08:23:38;;;;;;;28.75;20.75;;;0.80;99.90;;;;;;5034445;28;20709;-85
2021/01/15 08:26:27;;;;;;;37.63;22.15;;;0.90;99.90;;;;;;5035741;28;20189;-85
2021/01/15 08:28:54;;;;;;;28.50;20.30;;;1.00;99.90;;;;;;5014072;28;20197;-86
2021/01/15 08:31:24;;;;;;;27.45;20.15;;;1.10;99.90;;;;;;5038917;28;20235;-86
2021/01/15 08:34:08;;;;;;;32.25;18.73;;;1.10;99.90;;;;;;5053755;28;20193;-85
2021/01/15 08:36:35;;;;;;;23.60;17.75;;;1.10;99.90;;;;;;5035076;28;20552;-86
2021/01/15 08:39:02;;;;;;;29.75;18.27;;;1.10;99.90;;;;;;5037589;28;20210;-85
2021/01/15 08:41:28;;;;;;;32.58;21.48;;;1.20;99.90;;;;;;5036801;28;20194;-86
2021/01/15 08:43:55;;;;;;;30.40;20.08;;;1.10;99.90;;;;;;5033577;28;20251;-86
2021/01/15 08:46:23;;;;;;;24.75;18.40;;;1.10;99.90;;;;;;5033689;28;20596;-86
2021/01/15 08:48:51;;;;;;;26.50;18.05;;;1.10;99.90;;;;;;5016609;28;20196;-86
2021/01/15 08:51:20;;;;;;;31.42;22.02;;;1.20;99.90;;;;;;5033676;28;20235;-85
2021/01/15 08:54:06;;;;;;;24.92;18.33;;;1.20;99.90;;;;;;5033752;28;20204;-85
2021/01/15 08:56:38;;;;;;;29.48;20.20;;;1.20;99.90;;;;;;5035075;28;20206;-85
2021/01/15 08:59:06;;;;;;;28.67;20.80;;;1.30;99.90;;;;;;5037453;28;20238;-85
2021/01/15 09:01:34;;;;;;;26.73;19.92;;;1.30;99.90;;;;;;5033221;28;20205;-85
2021/01/15 09:04:05;;;;;;;28.92;18.77;;;1.30;99.90;;;;;;5014309;28;20252;-85
2021/01/15 09:06:32;;;;;;;30.60;17.30;;;1.40;99.90;;;;;;5028489;28;20205;-85
2021/01/15 09:09:03;;;;;;;26.00;18.63;;;1.40;99.90;;;;;;5031990;28;20197;-86
2021/01/15 09:11:32;;;;;;;24.27;17.15;;;1.40;99.90;;;;;;4998322;28;20192;-86
2021/01/15 09:13:59;;;;;;;25.73;18.98;;;1.40;99.90;;;;;;5036939;28;20221;-86
2021/01/15 09:16:27;;;;;;;23.40;17.42;;;1.50;99.90;;;;;;5056279;28;20633;-84
2021/01/15 09:18:55;;;;;;;31.35;20.40;;;1.50;99.90;;;;;;5057509;28;20226;-84
2021/01/15 09:21:23;;;;;;;25.85;18.35;;;1.50;99.90;;;;;;5043971;28;20189;-85
2021/01/15 09:23:49;;;;;;;28.13;19.50;;;1.50;99.90;;;;;;5041274;28;20199;-85
2021/01/15 09:26:17;;;;;;;24.05;17.90;;;1.50;99.90;;;;;;5037817;28;20208;-85
2021/01/15 09:28:44;;;;;;;27.75;18.60;;;1.50;99.90;;;;;;5036911;28;20193;-85
2021/01/15 09:31:10;;;;;;;27.63;17.02;;;1.50;99.90;;;;;;5036851;28;20221;-85
2021/01/15 09:33:46;;;;;;;23.55;17.35;;;1.50;99.90;;;;;;5036980;28;20197;-84
2021/01/15 09:36:23;;;;;;;21.27;16.63;;;1.50;99.90;;;;;;5037280;28;20194;-85
2021/01/15 09:38:49;;;;;;;22.63;17.33;;;1.50;99.90;;;;;;5036605;28;20588;-85
2021/01/15 09:41:16;;;;;;;20.33;14.90;;;1.60;99.90;;;;;;5036827;28;20188;-86
2021/01/15 09:43:43;;;;;;;25.15;17.85;;;1.60;99.90;;;;;;5036278;28;20191;-85
2021/01/15 09:46:17;;;;;;;29.77;17.80;;;1.60;99.90;;;;;;5036516;28;20196;-87
2021/01/15 09:48:44;;;;;;;18.85;15.82;;;1.70;99.90;;;;;;5040362;28;20209;-86
2021/01/15 09:51:10;;;;;;;26.40;18.38;;;1.70;99.90;;;;;;5039331;28;20218;-86
2021/01/15 09:53:37;;;;;;;22.40;16.70;;;1.70;99.90;;;;;;5036193;28;20202;-85
2021/01/15 09:56:04;;;;;;;23.17;16.83;;;1.80;99.90;;;;;;5036555;28;20187;-86
2021/01/15 09:58:30;;;;;;;25.08;15.38;;;1.80;99.90;;;;;;5039010;28;20201;-86
2021/01/15 10:00:56;;;;;;;23.42;16.38;;;1.80;99.90;;;;;;5023012;28;20269;-86
2021/01/15 10:03:22;;;;;;;29.52;18.48;;;1.80;99.90;;;;;;5019009;28;20203;-86
2021/01/15 10:05:49;;;;;;;22.90;17.60;;;1.90;99.90;;;;;;5033946;28;20199;-87
2021/01/15 10:08:15;;;;;;;26.77;16.90;;;1.90;99.90;;;;;;5035930;28;20194;-87
2021/01/15 10:10:42;;;;;;;23.58;16.60;;;2.00;99.90;;;;;;5035500;28;20215;-87
2021/01/15 10:13:08;;;;;;;22.45;15.98;;;2.10;99.90;;;;;;5035317;28;20199;-86
2021/01/15 10:15:35;;;;;;;21.35;17.20;;;2.20;99.90;;;;;;5036357;28;20582;-87
2021/01/15 10:18:01;;;;;;;21.48;15.73;;;2.30;99.90;;;;;;5035476;28;20639;-86
2021/01/15 10:20:28;;;;;;;22.83;15.77;;;2.40;99.90;;;;;;5034859;28;20198;-86
2021/01/15 10:22:54;;;;;;;20.58;13.07;;;2.50;99.90;;;;;;5034959;28;20246;-87
2021/01/15 10:25:20;;;;;;;18.95;14.80;;;2.60;99.90;;;;;;5035863;28;20198;-85
2021/01/15 10:27:47;;;;;;;18.83;12.90;;;2.60;99.90;;;;;;5034797;28;20199;-85
2021/01/15 10:30:15;;;;;;;20.33;14.00;;;2.60;99.90;;;;;;5032793;28;20227;-85
2021/01/15 10:32:47;;;;;;;18.05;12.75;;;2.60;99.90;;;;;;5027141;28;20196;-84
2021/01/15 10:35:14;;;;;;;21.33;15.07;;;2.60;99.90;;;;;;5026710;28;20191;-84
2021/01/15 10:37:40;;;;;;;15.63;12.10;;;2.60;99.90;;;;;;5035271;28;20253;-84
2021/01/15 10:40:08;;;;;;;16.00;11.88;;;2.70;99.90;;;;;;5033216;28;20188;-84
2021/01/15 10:42:38;;;;;;;22.58;13.57;;;2.80;99.90;;;;;;5035697;28;20191;-88
2021/01/15 10:45:07;;;;;;;19.10;13.43;;;2.80;99.90;;;;;;5037034;28;20187;-88
2021/01/15 10:47:33;;;;;;;14.68;11.43;;;3.00;99.90;;;;;;5035621;28;20185;-85
2021/01/15 10:49:59;;;;;;;15.75;11.65;;;3.00;99.90;;;;;;5035369;28;20215;-84
2021/01/15 10:52:25;;;;;;;11.90;9.88;;;3.00;99.90;;;;;;5036339;28;20199;-85
2021/01/15 10:54:52;;;;;;;15.38;11.43;;;3.00;99.90;;;;;;5036906;28;20200;-85
2021/01/15 10:57:18;;;;;;;15.20;10.25;;;3.10;99.90;;;;;;5035963;28;20214;-85
2021/01/15 10:59:44;;;;;;;19.73;11.60;;;3.10;99.90;;;;;;5043188;28;20202;-85
2021/01/15 11:02:11;;;;;;;15.52;10.90;;;3.10;99.90;;;;;;5035105;28;20539;-85
2021/01/15 11:04:37;;;;;;;15.45;11.25;;;3.10;99.90;;;;;;5035162;28;20246;-85
2021/01/15 11:07:05;;;;;;;18.80;10.50;;;3.20;99.90;;;;;;5035458;28;20199;-85
2021/01/15 11:09:32;;;;;;;18.95;11.60;;;3.20;99.90;;;;;;5036137;28;20234;-85
2021/01/15 11:11:59;;;;;;;15.07;9.60;;;3.20;99.90;;;;;;5035847;28;20238;-85
2021/01/15 11:14:25;;;;;;;13.75;10.18;;;3.20;99.90;;;;;;5035783;28;20199;-85
2021/01/15 11:16:53;;;;;;;16.80;11.55;;;3.10;99.90;;;;;;5035276;28;20199;-85
2021/01/15 11:19:21;;;;;;;14.23;9.57;;;3.10;99.90;;;;;;5034596;28;20605;-84
2021/01/15 11:21:47;;;;;;;12.25;9.20;;;3.10;99.90;;;;;;5035112;28;20662;-83
2021/01/15 11:24:14;;;;;;;13.82;9.38;;;3.20;99.90;;;;;;5035661;28;20200;-85
2021/01/15 11:26:40;;;;;;;13.40;8.77;;;3.20;99.90;;;;;;5035458;28;20192;-85
2021/01/15 11:29:08;;;;;;;14.43;9.95;;;3.20;99.90;;;;;;5035335;28;20199;-85
2021/01/15 11:31:35;;;;;;;11.40;8.70;;;3.30;99.90;;;;;;5034966;28;20209;-85
2021/01/15 11:34:02;;;;;;;21.13;10.70;;;3.30;99.90;;;;;;5035373;28;20202;-85
2021/01/15 11:36:30;;;;;;;11.70;9.07;;;3.30;99.90;;;;;;5035644;28;20528;-85
2021/01/15 11:38:57;;;;;;;13.35;9.40;;;3.30;99.90;;;;;;5034380;28;20196;-85
2021/01/15 11:41:23;;;;;;;11.68;8.77;;;3.30;99.90;;;;;;5035047;28;20196;-85
2021/01/15 11:43:49;;;;;;;10.55;7.60;;;3.30;99.90;;;;;;5035601;28;20551;-85
2021/01/15 11:46:16;;;;;;;11.57;9.13;;;3.30;99.90;;;;;;5035177;28;20185;-85
2021/01/15 11:48:42;;;;;;;14.85;9.85;;;3.20;99.90;;;;;;5035746;28;20189;-87
2021/01/15 11:51:10;;;;;;;12.70;8.45;;;3.30;99.90;;;;;;5035384;28;20218;-86
2021/01/15 11:53:38;;;;;;;15.43;9.23;;;3.20;99.90;;;;;;5035950;28;20184;-87
2021/01/15 11:56:05;;;;;;;16.38;9.52;;;3.20;99.90;;;;;;5044174;28;20268;-85
2021/01/15 11:58:32;;;;;;;14.63;10.70;;;3.10;99.90;;;;;;5044278;28;20199;-86
2021/01/15 12:00:58;;;;;;;15.98;10.75;;;3.00;99.90;;;;;;5038178;28;20500;-85
2021/01/15 12:03:25;;;;;;;17.10;11.15;;;3.00;99.90;;;;;;5035104;28;20179;-85
2021/01/15 12:05:52;;;;;;;13.50;9.38;;;3.00;99.90;;;;;;5036208;28;20540;-85
2021/01/15 12:08:19;;;;;;;15.38;11.35;;;2.90;99.90;;;;;;5037815;28;20184;-85
2021/01/15 12:10:47;;;;;;;16.58;9.25;;;3.00;99.90;;;;;;5040592;28;20213;-85
2021/01/15 12:13:14;;;;;;;12.52;10.40;;;3.00;99.90;;;;;;5034873;28;20644;-85
2021/01/15 12:15:40;;;;;;;14.50;11.02;;;3.00;99.90;;;;;;5034995;28;20667;-84
2021/01/15 12:18:07;;;;;;;16.23;11.65;;;2.90;99.90;;;;;;5034347;28;20297;-83
2021/01/15 12:20:36;;;;;;;16.77;11.52;;;2.80;99.90;;;;;;5034868;28;20192;-84
2021/01/15 12:23:02;;;;;;;16.65;11.05;;;2.80;99.90;;;;;;5034929;28;20547;-84
2021/01/15 12:25:29;;;;;;;16.10;12.15;;;2.70;99.90;;;;;;5035385;28;20601;-85
2021/01/15 12:27:56;;;;;;;17.08;11.48;;;2.70;99.90;;;;;;5030398;28;20572;-85
2021/01/15 12:30:23;;;;;;;17.42;12.40;;;2.60;99.90;;;;;;5029403;28;20223;-85
2021/01/15 12:32:53;;;;;;;15.30;11.75;;;2.60;99.90;;;;;;5027309;28;20205;-85
2021/01/15 12:35:20;;;;;;;16.48;11.25;;;2.50;99.90;;;;;;5035794;28;20290;-85
2021/01/15 12:37:47;;;;;;;18.42;12.60;;;2.50;99.90;;;;;;5032144;28;20297;-85
2021/01/15 12:40:14;;;;;;;19.05;11.57;;;2.50;99.90;;;;;;5038742;28;20284;-87
2021/01/15 12:42:40;;;;;;;17.67;10.57;;;2.50;99.90;;;;;;5037004;28;20225;-87
2021/01/15 12:45:09;;;;;;;15.95;11.18;;;2.60;99.90;;;;;;5037141;28;20199;-88
2021/01/15 12:47:39;;;;;;;14.90;11.35;;;2.60;99.90;;;;;;5037202;28;20281;-86
2021/01/15 12:50:07;;;;;;;13.45;9.55;;;2.60;99.90;;;;;;5036380;28;20316;-86